Terminal Aerodrome Forecast
Issued by NWS

Home | Current Version | Previous Version | Text Only | Print | Product List | Glossary On
Versions: 1 2 3 4 5 6 7 8 9 10 11 12 13 14 15 16
000
FTUS44 KTSA 161100
TAFRVS
TAF
KRVS 161120Z 1612/1712 17006KT P6SM SCT250 WS020/18040KT
     FM161400 19013G20KT P6SM SCT250
     FM161700 19020G27KT P6SM SCT250
     FM170100 17008KT P6SM SCT250
     FM170600 14003KT P6SM BKN250=

USA.gov is the U.S. government's official web portal to all federal, state and local government web resources and services.